LEPP Airport Information

Runway Information
Runway 15 Length 0 ft width 0 ft
Elevation 1468 ft Threshold 0 ft Heading 0
Runway 33 Length 0 ft Width 0 ft
Elevation 1500 ft Threshold 0 ft Heading 0
Runway 16 Length 7241 ft width 148 ft
Elevation 1468 ft Threshold 0 ft Heading 152
Runway 34 Length 7241 ft Width 148 ft
Elevation 1504 ft Threshold 984 ft Heading 332
Airport Frequencies
Type APP Name APP Frequency 118.2 MHZ
Type GND Name GND Frequency 121.7 MHZ
Type TWR Name TWR Frequency 118.2 MHZ
Airport Navaids
Type NDB Name Pamplona Frequency 422 KHZ
Type VOR-DME Name Pamplona Frequency 113550 KHZ
Type VOR-DME Name Pamplona Frequency 112300 KHZ
Airport Weather Information & NOTAM
ADDS - METARS form results

(2135 UTC 23 February 2019)
Data provider http://aviationweather.gov/metar/data/
 
METAR text: LEPP 232130Z 36007KT CAVOK 10/01 Q1030
Conditions at: LEPP (PAMPLONA/NOAIN , ES) observed 2130 UTC 23 February 2019
Temperature: 10.0°C (50°F)
Dewpoint: 1.0°C (34°F) [RH = 53%]
Pressure (altimeter): 30.41 inches Hg (1030.0 mb)
Winds: from the N (360 degrees) at 8 MPH (7 knots; 3.6 m/s)
Visibility: 6 or more miles (10+ km)
Ceiling: ceiling and visibility are OK
Clouds: unknown
Weather: no significant weather observed at this time

METAR text: LEPP 232100Z 36006KT CAVOK 10/00 Q1030
Conditions at: LEPP (PAMPLONA/NOAIN , ES) observed 2100 UTC 23 February 2019
Temperature: 10.0°C (50°F)
Dewpoint: 0.0°C (32°F) [RH = 50%]
Pressure (altimeter): 30.41 inches Hg (1030.0 mb)
Winds: from the N (360 degrees) at 7 MPH (6 knots; 3.1 m/s)
Visibility: 6 or more miles (10+ km)
Ceiling: ceiling and visibility are OK
Clouds: unknown
Weather: no significant weather observed at this time

Forecast for: LEPP (PAMPLONA/NOAIN , ES)
Text: TAF LEPP 232000Z 2321/2421 34007KT CAVOK TX17/2415Z TNM01/2407Z
Forecast period: 2100 UTC 23 February 2019 to 2100 UTC 24 February 2019
Forecast type: FROM: standard forecast or significant change
Winds: from the NNW (340 degrees) at 8 MPH (7 knots; 3.6 m/s)
Visibility: 6 or more miles 10+ km)
Ceiling: unknown
Clouds: missing
Weather: no significant weather forecast for this period